createdAt,value
2018-06-10T00:00:41.636Z,3.97
2018-06-10T00:03:10.950Z,4.17
2018-06-10T00:05:40.214Z,4.23
2018-06-10T00:08:09.545Z,4.10
2018-06-10T00:10:38.813Z,3.57
2018-06-10T00:13:08.164Z,4.30
2018-06-10T00:15:37.527Z,4.20
2018-06-10T00:18:06.805Z,3.63
2018-06-10T00:20:36.047Z,4.20
2018-06-10T00:23:05.383Z,4.17
2018-06-10T00:25:34.709Z,3.83
2018-06-10T00:28:04.032Z,4.30
2018-06-10T00:30:33.365Z,4.40
2018-06-10T00:33:02.650Z,4.07
2018-06-10T00:35:31.931Z,4.40
2018-06-10T00:38:01.183Z,4.20
2018-06-10T00:40:30.442Z,3.67
2018-06-10T00:42:59.799Z,4.57
2018-06-10T00:45:29.073Z,4.00
2018-06-10T00:47:58.420Z,3.97
2018-06-10T00:50:27.851Z,3.50
2018-06-10T00:52:56.809Z,4.67
2018-06-10T00:55:26.004Z,3.93
2018-06-10T00:57:55.272Z,4.33
2018-06-10T01:00:24.570Z,4.30
2018-06-10T01:02:53.881Z,3.93
2018-06-10T01:05:23.185Z,4.23
2018-06-10T01:07:52.513Z,4.00
2018-06-10T01:10:21.735Z,3.80
2018-06-10T01:12:51.066Z,4.27
2018-06-10T01:15:20.094Z,4.10
2018-06-10T01:17:49.237Z,4.17
2018-06-10T01:20:18.485Z,3.67
2018-06-10T01:22:47.769Z,4.43
2018-06-10T01:25:17.021Z,4.53
2018-06-10T01:27:46.256Z,4.10
2018-06-10T01:30:15.466Z,3.80
2018-06-10T01:32:44.764Z,4.20
2018-06-10T01:35:13.988Z,4.50
2018-06-10T01:37:43.284Z,4.10
2018-06-10T01:40:12.552Z,4.97
2018-06-10T01:42:41.773Z,4.90
2018-06-10T01:45:11.053Z,4.73
2018-06-10T01:47:40.322Z,4.90
2018-06-10T01:50:09.274Z,5.00
2018-06-10T01:52:38.450Z,4.87
2018-06-10T01:55:07.775Z,5.13
2018-06-10T01:57:36.982Z,5.17
2018-06-10T02:00:06.308Z,4.43
2018-06-10T02:02:35.583Z,4.47
2018-06-10T02:05:04.944Z,4.50
2018-06-10T02:07:34.265Z,4.77
2018-06-10T02:10:03.578Z,4.60
2018-06-10T02:12:33.128Z,4.73
2018-06-10T02:15:02.473Z,4.73
2018-06-10T02:17:31.788Z,4.60
2018-06-10T02:20:01.046Z,4.70
2018-06-10T02:22:30.379Z,4.80
2018-06-10T02:24:59.724Z,5.27
2018-06-10T02:27:29.019Z,5.27
2018-06-10T02:29:58.276Z,4.90
2018-06-10T02:32:27.548Z,4.47
2018-06-10T02:34:56.888Z,4.70
2018-06-10T02:37:26.307Z,4.63
2018-06-10T02:39:55.627Z,4.33
2018-06-10T02:42:24.947Z,4.90
2018-06-10T02:44:54.297Z,4.73
2018-06-10T02:47:23.612Z,4.43
2018-06-10T02:49:52.919Z,4.57
2018-06-10T02:52:22.248Z,4.73
2018-06-10T02:54:51.703Z,4.73
2018-06-10T02:57:20.979Z,5.37
2018-06-10T02:59:50.270Z,5.77
2018-06-10T03:02:19.538Z,5.13
2018-06-10T03:04:48.785Z,5.00
2018-06-10T03:07:18.159Z,4.43
2018-06-10T03:09:47.524Z,4.20
2018-06-10T03:12:16.784Z,5.13
2018-06-10T03:14:46.152Z,5.30
2018-06-10T03:17:15.489Z,4.57
2018-06-10T03:19:44.788Z,4.90
2018-06-10T03:22:14.116Z,4.70
2018-06-10T03:24:43.396Z,4.40
2018-06-10T03:27:12.751Z,4.53
2018-06-10T03:29:42.535Z,4.50
2018-06-10T03:32:11.820Z,4.93
2018-06-10T03:34:41.137Z,4.80
2018-06-10T03:37:10.469Z,5.13
2018-06-10T03:39:39.803Z,5.00
2018-06-10T03:42:09.177Z,5.00
2018-06-10T03:44:38.542Z,5.37
2018-06-10T03:47:07.907Z,5.27
2018-06-10T03:49:37.175Z,5.17
2018-06-10T03:52:06.464Z,5.30
2018-06-10T03:54:35.740Z,5.50
2018-06-10T03:57:05.140Z,5.40
2018-06-10T03:59:34.395Z,5.10
2018-06-10T04:02:03.747Z,5.37
2018-06-10T04:04:33.144Z,5.00
2018-06-10T04:07:02.531Z,5.13
2018-06-10T04:09:31.806Z,5.30
2018-06-10T04:12:01.180Z,4.43
2018-06-10T04:14:30.587Z,5.80
2018-06-10T04:16:59.894Z,4.97
2018-06-10T04:19:29.264Z,6.30
2018-06-10T04:21:58.728Z,5.40
2018-06-10T04:24:28.224Z,5.57
2018-06-10T04:26:57.472Z,5.30
2018-06-10T04:29:26.903Z,5.10
2018-06-10T04:31:56.232Z,6.20
2018-06-10T04:34:25.545Z,5.63
2018-06-10T04:36:54.904Z,5.57
2018-06-10T04:39:24.390Z,6.07
2018-06-10T04:41:53.683Z,5.57
2018-06-10T04:44:23.065Z,6.00
2018-06-10T04:46:52.425Z,5.80
2018-06-10T04:49:21.820Z,5.53
2018-06-10T04:51:51.135Z,6.90
2018-06-10T04:54:20.531Z,5.47
2018-06-10T04:56:49.596Z,5.73
2018-06-10T04:59:18.899Z,5.77
2018-06-10T05:01:48.194Z,5.50
2018-06-10T05:04:17.545Z,5.67
2018-06-10T05:06:46.512Z,6.20
2018-06-10T05:09:15.769Z,7.07
2018-06-10T05:11:45.059Z,6.53
2018-06-10T05:14:14.333Z,6.93
2018-06-10T05:16:43.646Z,6.60
2018-06-10T05:19:12.992Z,6.93
2018-06-10T05:21:42.281Z,7.10
2018-06-10T05:24:12.160Z,7.57
2018-06-10T05:26:41.353Z,7.73
2018-06-10T05:29:10.674Z,8.20
2018-06-10T05:31:39.941Z,7.83
2018-06-10T05:34:09.282Z,7.33
2018-06-10T05:36:38.283Z,8.07
2018-06-10T05:39:08.793Z,6.90
2018-06-10T05:41:38.098Z,8.47
2018-06-10T05:44:07.430Z,7.10
2018-06-10T05:46:36.823Z,7.63
2018-06-10T05:49:06.124Z,7.73
2018-06-10T05:51:35.505Z,7.53
2018-06-10T05:54:04.851Z,7.63
2018-06-10T05:56:34.176Z,7.77
2018-06-10T05:59:03.568Z,8.30
2018-06-10T06:01:32.909Z,7.80
2018-06-10T06:04:02.197Z,7.80
2018-06-10T06:06:31.476Z,7.73
2018-06-10T06:09:00.907Z,7.00
2018-06-10T06:11:30.193Z,7.90
2018-06-10T06:13:59.518Z,7.47
2018-06-10T06:16:33.186Z,7.30
2018-06-10T06:19:03.700Z,7.73
2018-06-10T06:21:33.484Z,6.77
2018-06-10T06:24:02.883Z,7.13
2018-06-10T06:26:32.251Z,6.93
2018-06-10T06:29:01.530Z,7.97
2018-06-10T06:31:30.838Z,8.00
2018-06-10T06:34:00.194Z,6.60
2018-06-10T06:36:29.503Z,6.93
2018-06-10T06:38:58.882Z,6.40
2018-06-10T06:41:28.234Z,6.40
2018-06-10T06:43:57.836Z,6.57
2018-06-10T06:46:27.149Z,7.62
2018-06-10T06:48:56.535Z,8.15
2018-06-10T06:51:25.577Z,9.00
2018-06-10T06:53:55.064Z,8.70
2018-06-10T06:56:24.425Z,8.95
2018-06-10T06:58:53.904Z,8.30
2018-06-10T07:01:23.370Z,8.68
2018-06-10T07:03:52.711Z,9.00
2018-06-10T07:06:22.100Z,9.33
2018-06-10T07:08:51.772Z,10.53
2018-06-10T07:11:21.118Z,9.38
2018-06-10T07:13:50.468Z,9.25
2018-06-10T07:16:20.165Z,7.72
2018-06-10T07:18:49.845Z,7.92
2018-06-10T07:21:19.204Z,7.13
2018-06-10T07:23:48.828Z,7.30
2018-06-10T07:26:18.666Z,6.75
2018-06-10T07:28:48.118Z,6.65
2018-06-10T07:31:17.418Z,6.90
2018-06-10T07:33:46.890Z,7.15
2018-06-10T07:36:16.227Z,7.15
2018-06-10T07:38:45.570Z,7.83
2018-06-10T07:41:15.154Z,7.17
2018-06-10T07:43:44.538Z,6.50
2018-06-10T07:46:13.945Z,6.97
2018-06-10T07:48:43.561Z,6.90
2018-06-10T07:51:12.887Z,6.72
2018-06-10T07:53:42.220Z,6.70
2018-06-10T07:56:11.225Z,6.95
2018-06-10T07:58:40.497Z,6.30
2018-06-10T08:01:09.797Z,6.45
2018-06-10T08:03:39.251Z,6.20
2018-06-10T08:06:08.646Z,6.35
2018-06-10T08:08:38.531Z,6.42
2018-06-10T08:11:07.944Z,6.95
2018-06-10T08:13:37.262Z,6.25
2018-06-10T08:16:06.825Z,5.72
2018-06-10T08:18:36.321Z,5.87
2018-06-10T08:21:05.732Z,5.62
2018-06-10T08:23:35.245Z,5.55
2018-06-10T08:26:04.585Z,6.20
2018-06-10T08:28:33.932Z,5.87
2018-06-10T08:31:03.426Z,6.17
2018-06-10T08:33:32.877Z,6.20
2018-06-10T08:36:02.522Z,6.10
2018-06-10T08:38:32.004Z,6.10
2018-06-10T08:41:01.251Z,6.33
2018-06-10T08:43:30.703Z,6.42
2018-06-10T08:46:00.050Z,6.75
2018-06-10T08:48:29.531Z,6.90
2018-06-10T08:50:59.005Z,6.10
2018-06-10T08:53:28.495Z,6.87
2018-06-10T08:55:57.929Z,6.58
2018-06-10T08:58:27.380Z,6.30
2018-06-10T09:00:56.857Z,7.00
2018-06-10T09:03:26.523Z,7.10
2018-06-10T09:05:56.347Z,7.78
2018-06-10T09:08:25.761Z,7.80
2018-06-10T09:10:55.122Z,7.65
2018-06-10T09:13:24.577Z,7.35
2018-06-10T09:15:54.034Z,7.17
2018-06-10T09:18:23.479Z,7.40
2018-06-10T09:20:52.961Z,6.95
2018-06-10T09:23:22.449Z,7.17
2018-06-10T09:25:51.810Z,7.28
2018-06-10T09:28:21.172Z,6.28
2018-06-10T09:30:50.571Z,6.90
2018-06-10T09:33:19.994Z,6.33
2018-06-10T09:35:49.742Z,6.55
2018-06-10T09:38:19.745Z,6.50
2018-06-10T09:40:49.589Z,5.92
2018-06-10T09:43:19.342Z,6.00
2018-06-10T09:45:49.175Z,5.70
2018-06-10T09:48:18.703Z,6.23
2018-06-10T09:50:48.530Z,6.53
2018-06-10T09:53:18.663Z,6.17
2018-06-10T09:55:48.574Z,6.37
2018-06-10T09:58:18.384Z,6.75
2018-06-10T10:00:48.151Z,5.75
2018-06-10T10:03:18.984Z,5.90
2018-06-10T10:05:49.414Z,5.42
2018-06-10T10:08:19.279Z,6.42
2018-06-10T10:10:48.925Z,6.00
2018-06-10T10:13:18.555Z,5.95
2018-06-10T10:15:48.100Z,6.40
2018-06-10T10:18:17.599Z,6.30
2018-06-10T10:20:47.146Z,5.92
2018-06-10T10:23:16.856Z,5.83
2018-06-10T10:25:46.737Z,5.97
2018-06-10T10:28:16.623Z,5.97
2018-06-10T10:30:46.071Z,5.25
2018-06-10T10:33:15.754Z,5.70
2018-06-10T10:35:45.470Z,5.95
2018-06-10T10:38:14.871Z,5.75
2018-06-10T10:40:44.448Z,5.92
2018-06-10T10:43:13.958Z,5.95
2018-06-10T10:45:43.412Z,5.55
2018-06-10T10:48:13.346Z,5.70
2018-06-10T10:50:42.330Z,5.58
2018-06-10T10:53:11.735Z,5.97
2018-06-10T10:55:41.244Z,5.25
2018-06-10T10:58:11.005Z,6.00
2018-06-10T11:00:40.757Z,5.30
2018-06-10T11:03:10.330Z,6.10
2018-06-10T11:05:39.908Z,5.80
2018-06-10T11:08:09.452Z,6.25
2018-06-10T11:10:38.929Z,6.83
2018-06-10T11:13:08.338Z,7.17
2018-06-10T11:15:37.922Z,7.25
2018-06-10T11:18:07.396Z,7.03
2018-06-10T11:20:36.817Z,6.97
2018-06-10T11:23:06.405Z,7.17
2018-06-10T11:25:35.895Z,7.40
2018-06-10T11:28:05.387Z,6.55
2018-06-10T11:30:34.794Z,6.92
2018-06-10T11:33:04.241Z,7.28
2018-06-10T11:35:33.638Z,6.90
2018-06-10T11:38:03.175Z,6.53
2018-06-10T11:40:32.763Z,6.78
2018-06-10T11:43:02.215Z,5.50
2018-06-10T11:45:31.888Z,5.10
2018-06-10T11:48:01.341Z,5.00
2018-06-10T11:50:31.319Z,4.58
2018-06-10T11:53:00.940Z,4.85
2018-06-10T11:55:30.448Z,4.95
2018-06-10T11:58:00.033Z,4.53
2018-06-10T12:00:29.713Z,5.13
2018-06-10T12:02:59.598Z,5.17
2018-06-10T12:05:29.133Z,5.00
2018-06-10T12:07:58.732Z,4.47
2018-06-10T12:10:27.907Z,4.63
2018-06-10T12:12:57.498Z,4.47
2018-06-10T12:15:27.558Z,4.77
2018-06-10T12:17:57.048Z,4.67
2018-06-10T12:20:26.589Z,4.35
2018-06-10T12:22:56.223Z,4.37
2018-06-10T12:25:25.762Z,4.28
2018-06-10T12:27:55.396Z,4.45
2018-06-10T12:30:25.610Z,4.20
2018-06-10T12:32:55.824Z,4.10
2018-06-10T12:35:25.250Z,4.12
2018-06-10T12:37:55.644Z,3.83
2018-06-10T12:40:27.449Z,4.17
2018-06-10T12:42:57.184Z,3.98
2018-06-10T12:45:26.529Z,4.00
2018-06-10T12:47:57.181Z,4.03
2018-06-10T12:50:27.478Z,4.00
2018-06-10T12:52:57.425Z,4.03
2018-06-10T12:55:28.908Z,4.30
2018-06-10T12:57:58.943Z,3.80
2018-06-10T13:00:30.026Z,4.00
2018-06-10T13:02:59.477Z,3.87
2018-06-10T13:05:29.632Z,4.27
2018-06-10T13:07:58.884Z,4.63
2018-06-10T13:10:28.187Z,4.00
2018-06-10T13:12:57.813Z,4.30
2018-06-10T13:15:27.428Z,3.97
2018-06-10T13:18:02.243Z,4.00
2018-06-10T13:20:31.875Z,3.97
2018-06-10T13:23:01.191Z,4.00
2018-06-10T13:25:30.583Z,4.47
2018-06-10T13:28:00.030Z,3.93
2018-06-10T13:30:29.479Z,3.93
2018-06-10T13:32:58.814Z,3.73
2018-06-10T13:35:28.521Z,3.77
2018-06-10T13:37:58.101Z,3.33
2018-06-10T13:40:27.412Z,4.00
2018-06-10T13:42:57.051Z,3.97
2018-06-10T13:45:27.718Z,3.80
2018-06-10T13:47:58.042Z,3.43
2018-06-10T13:50:29.845Z,3.50
2018-06-10T13:53:02.193Z,3.67
2018-06-10T13:55:34.131Z,3.80
2018-06-10T13:58:03.821Z,3.60
2018-06-10T14:00:33.552Z,3.30
2018-06-10T14:03:08.527Z,3.80
2018-06-10T14:05:38.200Z,4.03
2018-06-10T14:08:08.409Z,4.10
2018-06-10T14:10:40.902Z,4.13
2018-06-10T14:13:15.230Z,4.35
2018-06-10T14:15:45.984Z,4.25
2018-06-10T14:18:15.362Z,3.57
2018-06-10T14:20:45.442Z,4.70
2018-06-10T14:23:16.268Z,3.80
2018-06-10T14:25:45.778Z,4.20
2018-06-10T14:28:16.719Z,3.95
2018-06-10T14:30:45.870Z,4.37
2018-06-10T14:33:15.795Z,3.75
2018-06-10T14:35:46.884Z,4.80
2018-06-10T14:38:16.847Z,4.42
2018-06-10T14:40:46.972Z,4.65
2018-06-10T14:43:16.616Z,4.37
2018-06-10T14:45:46.707Z,5.47
2018-06-10T14:48:17.086Z,4.07
2018-06-10T14:50:48.777Z,4.27
2018-06-10T14:53:18.570Z,4.93
2018-06-10T14:55:48.621Z,5.07
2018-06-10T14:58:18.037Z,4.90
2018-06-10T15:00:47.372Z,5.60
2018-06-10T15:03:17.936Z,4.83
2018-06-10T15:05:47.313Z,4.80
2018-06-10T15:08:17.091Z,4.73
2018-06-10T15:10:46.376Z,4.70
2018-06-10T15:13:16.311Z,4.67
2018-06-10T15:15:46.166Z,4.93
2018-06-10T15:18:16.093Z,5.33
2018-06-10T15:20:45.843Z,5.40
2018-06-10T15:23:18.620Z,5.60
2018-06-10T15:25:48.493Z,5.53
2018-06-10T15:28:18.346Z,5.33
2018-06-10T15:30:47.774Z,5.80
2018-06-10T15:33:17.189Z,5.77
2018-06-10T15:35:48.396Z,5.53
2018-06-10T15:38:17.970Z,5.63
2018-06-10T15:40:47.413Z,5.47
2018-06-10T15:43:16.626Z,6.77
2018-06-10T15:45:45.813Z,6.60
2018-06-10T15:48:15.172Z,7.43
2018-06-10T15:50:44.544Z,7.07
2018-06-10T15:53:14.003Z,6.90
2018-06-10T15:55:43.656Z,7.57
2018-06-10T15:58:13.596Z,7.37
2018-06-10T16:00:43.203Z,7.27
2018-06-10T16:03:14.346Z,6.72
2018-06-10T16:05:50.561Z,11.27
2018-06-10T16:08:21.219Z,11.93
2018-06-10T16:10:50.812Z,10.70
2018-06-10T16:13:20.297Z,11.03
2018-06-10T16:15:49.642Z,11.17
2018-06-10T16:18:19.199Z,9.83
2018-06-10T16:20:48.839Z,10.40
2018-06-10T16:23:18.355Z,10.07
2018-06-10T16:25:47.699Z,9.50
2018-06-10T16:28:17.099Z,9.77
2018-06-10T16:30:46.705Z,9.20
2018-06-10T16:33:16.088Z,9.33
2018-06-10T16:35:45.846Z,9.33
2018-06-10T16:38:15.982Z,8.63
2018-06-10T16:40:45.388Z,8.20
2018-06-10T16:43:14.848Z,7.80
2018-06-10T16:45:44.380Z,8.60
2018-06-10T16:48:13.693Z,8.13
2018-06-10T16:50:43.176Z,8.53
2018-06-10T16:53:12.974Z,9.70
2018-06-10T16:55:42.856Z,9.20
2018-06-10T16:58:12.415Z,9.40
2018-06-10T17:00:42.608Z,8.17
2018-06-10T17:03:13.588Z,8.20
2018-06-10T17:05:43.977Z,7.23
2018-06-10T17:08:14.073Z,7.43
2018-06-10T17:10:44.248Z,7.10
2018-06-10T17:13:14.122Z,6.90
2018-06-10T17:15:44.477Z,6.43
2018-06-10T17:18:14.682Z,6.27
2018-06-10T17:20:44.229Z,6.33
2018-06-10T17:23:14.343Z,7.43
2018-06-10T17:25:45.654Z,7.57
2018-06-10T17:28:16.109Z,8.53
2018-06-10T17:30:47.464Z,7.37
2018-06-10T17:33:17.609Z,7.33
2018-06-10T17:35:47.901Z,7.30
2018-06-10T17:38:17.611Z,6.07
2018-06-10T17:40:46.995Z,7.03
2018-06-10T17:43:17.014Z,7.20
2018-06-10T17:45:49.268Z,6.77
2018-06-10T17:48:19.641Z,7.50
2018-06-10T17:50:49.685Z,6.97
2018-06-10T17:53:21.731Z,7.00
2018-06-10T17:55:54.320Z,6.33
2018-06-10T17:58:26.086Z,6.97
2018-06-10T18:00:57.169Z,6.80
2018-06-10T18:03:27.481Z,7.20
2018-06-10T18:05:58.101Z,7.10
2018-06-10T18:08:30.526Z,7.40
2018-06-10T18:11:01.025Z,7.20
2018-06-10T18:13:33.053Z,7.20
2018-06-10T18:16:04.991Z,7.77
2018-06-10T18:18:35.185Z,8.70
2018-06-10T18:21:08.148Z,8.13
2018-06-10T18:23:38.383Z,8.40
2018-06-10T18:26:10.594Z,8.40
2018-06-10T18:28:41.286Z,8.80
2018-06-10T18:31:13.254Z,8.87
2018-06-10T18:33:43.399Z,7.73
2018-06-10T18:36:14.820Z,7.90
2018-06-10T18:38:46.324Z,8.40
2018-06-10T18:41:20.487Z,8.33
2018-06-10T18:43:54.771Z,8.23
2018-06-10T18:46:25.717Z,8.33
2018-06-10T18:48:56.897Z,8.43
2018-06-10T18:51:28.423Z,8.13
2018-06-10T18:54:01.117Z,8.37
2018-06-10T18:56:34.770Z,8.13
2018-06-10T18:59:12.517Z,8.33
2018-06-10T19:01:47.207Z,8.57
2018-06-10T19:04:19.161Z,8.17
2018-06-10T19:06:49.410Z,8.30
2018-06-10T19:09:19.326Z,8.07
2018-06-10T19:11:49.884Z,7.70
2018-06-10T19:14:20.401Z,8.43
2018-06-10T19:16:50.160Z,9.70
2018-06-10T19:19:21.032Z,8.57
2018-06-10T19:21:50.811Z,9.13
2018-06-10T19:24:21.257Z,10.63
2018-06-10T19:26:51.406Z,11.10
2018-06-10T19:29:21.682Z,11.50
2018-06-10T19:31:51.799Z,11.60
2018-06-10T19:34:21.563Z,12.23
2018-06-10T19:36:52.695Z,11.53
2018-06-10T19:39:23.798Z,11.87
2018-06-10T19:41:55.289Z,11.97
2018-06-10T19:44:25.493Z,11.57
2018-06-10T19:46:55.711Z,11.47
2018-06-10T19:49:25.889Z,12.47
2018-06-10T19:51:56.452Z,11.93
2018-06-10T19:54:26.933Z,12.87
2018-06-10T19:56:57.383Z,12.23
2018-06-10T19:59:28.384Z,11.77
2018-06-10T20:01:58.518Z,10.43
2018-06-10T20:04:28.902Z,11.03
2018-06-10T20:06:58.670Z,11.03
2018-06-10T20:09:31.310Z,10.37
2018-06-10T20:12:00.836Z,10.93
2018-06-10T20:14:31.361Z,11.67
2018-06-10T20:17:01.961Z,11.70
2018-06-10T20:19:32.422Z,10.17
2018-06-10T20:22:03.731Z,11.77
2018-06-10T20:24:39.089Z,11.23
2018-06-10T20:27:09.336Z,11.63
2018-06-10T20:29:39.682Z,11.83
2018-06-10T20:32:10.116Z,12.17
2018-06-10T20:34:40.179Z,12.07
2018-06-10T20:37:10.619Z,11.73
2018-06-10T20:39:40.787Z,12.43
2018-06-10T20:42:11.449Z,13.00
2018-06-10T20:44:41.819Z,12.20
2018-06-10T20:47:11.817Z,12.57
2018-06-10T20:49:41.272Z,11.27
2018-06-10T20:52:10.840Z,12.13
2018-06-10T20:54:40.213Z,11.90
2018-06-10T20:57:09.634Z,11.93
2018-06-10T20:59:38.952Z,12.53
2018-06-10T21:02:08.426Z,13.13
2018-06-10T21:04:37.858Z,12.73
2018-06-10T21:07:07.251Z,12.67
2018-06-10T21:09:36.796Z,12.90
2018-06-10T21:12:06.226Z,13.17
2018-06-10T21:14:35.247Z,12.90
2018-06-10T21:17:04.617Z,12.50
2018-06-10T21:19:34.038Z,11.63
2018-06-10T21:22:03.423Z,12.30
2018-06-10T21:24:32.776Z,12.17
2018-06-10T21:27:02.135Z,13.70
2018-06-10T21:29:31.580Z,13.57
2018-06-10T21:32:01.133Z,13.27
2018-06-10T21:34:30.540Z,13.27
2018-06-10T21:36:59.947Z,13.53
2018-06-10T21:39:29.372Z,12.90
2018-06-10T21:41:58.843Z,12.23
2018-06-10T21:44:28.216Z,11.40
2018-06-10T21:46:57.224Z,11.83
2018-06-10T21:49:26.510Z,11.70
2018-06-10T21:51:55.907Z,11.30
2018-06-10T21:54:25.209Z,11.43
2018-06-10T21:56:54.528Z,11.07
2018-06-10T21:59:23.854Z,11.90
2018-06-10T22:01:53.312Z,11.03
2018-06-10T22:04:29.091Z,11.90
2018-06-10T22:06:58.479Z,11.00
2018-06-10T22:09:27.826Z,11.00
2018-06-10T22:11:57.223Z,11.87
2018-06-10T22:14:26.531Z,12.17
2018-06-10T22:16:55.903Z,10.77
2018-06-10T22:19:25.252Z,10.87
2018-06-10T22:21:54.659Z,10.43
2018-06-10T22:24:24.027Z,11.03
2018-06-10T22:26:53.387Z,10.90
2018-06-10T22:29:22.731Z,11.00
2018-06-10T22:31:52.169Z,10.43
2018-06-10T22:34:21.391Z,10.43
2018-06-10T22:36:50.737Z,10.90
2018-06-10T22:39:19.982Z,10.53
2018-06-10T22:41:49.272Z,11.17
2018-06-10T22:44:18.601Z,10.43
2018-06-10T22:46:47.982Z,11.30
2018-06-10T22:49:17.317Z,11.43
2018-06-10T22:51:46.625Z,12.50
2018-06-10T22:54:46.637Z,12.87
2018-06-10T22:57:15.942Z,12.87
2018-06-10T22:59:45.463Z,13.70
2018-06-10T23:02:14.722Z,14.73
2018-06-10T23:04:44.031Z,14.27
2018-06-10T23:07:13.387Z,15.27
2018-06-10T23:09:42.661Z,14.13
2018-06-10T23:12:12.969Z,13.93
2018-06-10T23:14:42.292Z,14.87
2018-06-10T23:17:11.576Z,15.17
2018-06-10T23:19:41.193Z,14.87
2018-06-10T23:22:10.439Z,14.53
2018-06-10T23:24:39.767Z,14.20
2018-06-10T23:27:09.075Z,15.33
2018-06-10T23:29:38.425Z,13.73
2018-06-10T23:32:07.863Z,15.40
2018-06-10T23:34:37.209Z,15.60
2018-06-10T23:37:06.495Z,14.60
2018-06-10T23:39:35.813Z,14.47
2018-06-10T23:42:05.162Z,14.37
2018-06-10T23:44:34.583Z,13.97
2018-06-10T23:47:04.156Z,13.97
2018-06-10T23:49:33.507Z,13.13
2018-06-10T23:52:02.778Z,13.83
2018-06-10T23:54:32.141Z,13.90
2018-06-10T23:57:01.534Z,12.93
2018-06-10T23:59:30.884Z,14.00
